Time;durP1;ratioP1;P1;durP2;ratioP2;P2;SDS_P1;SDS_P2;PMS_P1;PMS_P2;Temp;Humidity;BMP_temperature;BMP_pressure;BME280_temperature;BME280_humidity;BME280_pressure;Samples;Min_cycle;Max_cycle;Signal;HPM_P1;HPM_P2
2021/06/10 00:01:52;;;;;;;16.33;14.65;;;15.70;99.80;;;;;;5023752;28;20488;-64
2021/06/10 00:04:18;;;;;;;14.82;12.93;;;15.60;99.90;;;;;;5023670;28;20037;-64
2021/06/10 00:06:44;;;;;;;16.02;14.50;;;15.60;99.90;;;;;;5020373;28;20042;-64
2021/06/10 00:09:09;;;;;;;15.18;13.52;;;15.60;99.90;;;;;;5022204;28;20133;-64
2021/06/10 00:11:35;;;;;;;16.92;15.32;;;15.50;99.90;;;;;;5023398;28;20033;-64
2021/06/10 00:14:04;;;;;;;15.27;13.88;;;15.50;99.90;;;;;;5023376;28;20373;-64
2021/06/10 00:16:30;;;;;;;20.00;18.08;;;15.50;99.90;;;;;;5023150;28;20051;-64
2021/06/10 00:18:57;;;;;;;18.55;16.85;;;15.50;99.90;;;;;;5022909;28;20056;-64
2021/06/10 00:21:24;;;;;;;17.83;16.23;;;15.40;99.90;;;;;;5023003;28;20045;-64
2021/06/10 00:23:49;;;;;;;17.70;15.90;;;15.40;99.90;;;;;;5022951;28;20041;-64
2021/06/10 00:26:15;;;;;;;18.33;15.73;;;15.40;99.90;;;;;;5019421;28;20056;-64
2021/06/10 00:28:40;;;;;;;17.95;16.15;;;15.40;99.90;;;;;;5023619;28;20056;-64
2021/06/10 00:31:06;;;;;;;14.15;12.95;;;15.40;99.90;;;;;;5024133;28;20480;-64
2021/06/10 00:33:32;;;;;;;16.52;14.90;;;15.30;99.90;;;;;;5022685;28;20740;-64
2021/06/10 00:35:58;;;;;;;19.95;17.95;;;15.30;99.90;;;;;;5019440;28;20041;-64
2021/06/10 00:38:23;;;;;;;24.35;20.00;;;15.30;99.90;;;;;;5020830;28;20044;-64
2021/06/10 00:40:49;;;;;;;22.35;18.40;;;15.30;99.90;;;;;;5021560;28;20037;-64
2021/06/10 00:43:15;;;;;;;24.90;20.20;;;15.30;99.90;;;;;;5023334;28;20068;-64
2021/06/10 00:45:41;;;;;;;26.30;19.88;;;15.20;99.90;;;;;;5019170;28;21023;-64
2021/06/10 00:48:09;;;;;;;20.02;18.10;;;15.20;99.90;;;;;;5021400;28;21543;-64
2021/06/10 00:50:39;;;;;;;21.13;19.10;;;15.30;99.90;;;;;;5022979;28;20037;-64
2021/06/10 00:53:06;;;;;;;20.13;18.33;;;15.20;99.90;;;;;;5023233;28;20041;-64
2021/06/10 00:55:32;;;;;;;21.90;19.67;;;15.20;99.90;;;;;;5022338;28;20628;-64
2021/06/10 00:57:58;;;;;;;24.77;20.52;;;15.20;99.90;;;;;;5022252;28;20045;-64
2021/06/10 01:00:25;;;;;;;20.30;17.90;;;15.20;99.90;;;;;;5023117;28;20037;-64
2021/06/10 01:02:52;;;;;;;21.20;19.00;;;15.10;99.90;;;;;;5021277;28;20033;-64
2021/06/10 01:05:18;;;;;;;17.83;16.05;;;15.20;99.90;;;;;;5020078;28;20041;-64
2021/06/10 01:08:16;;;;;;;18.88;16.90;;;15.10;99.90;;;;;;5021478;28;20038;-64
2021/06/10 01:11:01;;;;;;;14.15;12.95;;;15.10;99.90;;;;;;4984773;28;20057;-64
2021/06/10 01:13:45;;;;;;;18.73;16.20;;;15.00;99.90;;;;;;5020657;28;20092;-64
2021/06/10 01:16:16;;;;;;;21.33;19.15;;;15.00;99.90;;;;;;5022853;28;20041;-64
2021/06/10 01:18:42;;;;;;;22.38;20.08;;;15.00;99.90;;;;;;5021909;28;20048;-64
2021/06/10 01:21:10;;;;;;;24.33;21.83;;;14.90;99.90;;;;;;5022794;28;20037;-64
2021/06/10 01:23:54;;;;;;;25.88;23.15;;;14.90;99.90;;;;;;5020422;28;20056;-64
2021/06/10 01:26:37;;;;;;;24.73;22.13;;;14.90;99.90;;;;;;5020936;28;20113;-64
2021/06/10 01:29:08;;;;;;;25.73;23.08;;;14.90;99.90;;;;;;5022462;28;20033;-64
2021/06/10 01:31:34;;;;;;;22.63;20.35;;;14.90;99.90;;;;;;5050547;28;20045;-64
2021/06/10 01:34:05;;;;;;;23.92;19.98;;;14.90;99.90;;;;;;5022002;28;20044;-64
2021/06/10 01:36:34;;;;;;;15.32;13.82;;;14.80;99.90;;;;;;5051905;28;20037;-64
2021/06/10 01:39:05;;;;;;;17.95;15.85;;;14.80;99.90;;;;;;5021277;28;20041;-64
2021/06/10 01:41:32;;;;;;;19.45;17.50;;;14.80;99.90;;;;;;5022822;28;20520;-64
2021/06/10 01:44:00;;;;;;;20.83;18.63;;;14.80;99.90;;;;;;5021262;28;20040;-64
2021/06/10 01:46:28;;;;;;;19.35;16.20;;;14.70;99.90;;;;;;5020967;28;20041;-64
2021/06/10 01:48:54;;;;;;;15.00;13.50;;;14.60;99.90;;;;;;5022625;28;20049;-64
2021/06/10 01:51:25;;;;;;;19.77;17.95;;;14.60;99.90;;;;;;5018976;28;20048;-64
2021/06/10 01:53:52;;;;;;;12.18;11.07;;;14.50;99.90;;;;;;5021413;28;20034;-64
2021/06/10 01:56:21;;;;;;;17.90;16.00;;;14.40;99.90;;;;;;5021734;28;20048;-64
2021/06/10 01:58:48;;;;;;;16.65;14.95;;;14.40;99.90;;;;;;5021743;28;20034;-64
2021/06/10 02:01:15;;;;;;;20.75;18.50;;;14.40;99.90;;;;;;5019302;28;20041;-64
2021/06/10 02:03:43;;;;;;;19.83;17.63;;;14.40;99.90;;;;;;5021411;28;20041;-64
2021/06/10 02:06:10;;;;;;;17.38;15.57;;;14.40;99.90;;;;;;5020808;28;20037;-64
2021/06/10 02:08:38;;;;;;;18.58;16.77;;;14.30;99.90;;;;;;5021252;28;20538;-64
2021/06/10 02:11:05;;;;;;;22.58;19.02;;;14.30;99.90;;;;;;5020499;28;20041;-64
2021/06/10 02:13:32;;;;;;;18.15;16.45;;;14.20;99.90;;;;;;5021668;28;20050;-64
2021/06/10 02:16:03;;;;;;;21.23;19.15;;;14.20;99.90;;;;;;5020238;28;20034;-64
2021/06/10 02:18:31;;;;;;;20.92;18.77;;;14.20;99.90;;;;;;5022848;28;20128;-64
2021/06/10 02:21:05;;;;;;;21.27;19.08;;;14.20;99.90;;;;;;5019169;28;20041;-64
2021/06/10 02:23:31;;;;;;;23.27;20.83;;;14.20;99.90;;;;;;5019896;28;20098;-64
2021/06/10 02:25:58;;;;;;;19.38;17.50;;;14.10;99.90;;;;;;5025129;28;20400;-64
2021/06/10 02:28:23;;;;;;;20.65;18.55;;;14.10;99.90;;;;;;5024504;28;20166;-64
2021/06/10 02:30:49;;;;;;;15.32;13.95;;;14.00;99.90;;;;;;5026894;28;20133;-64
2021/06/10 02:33:18;;;;;;;15.15;12.32;;;14.00;99.90;;;;;;5030073;28;20729;-64
2021/06/10 02:35:47;;;;;;;14.85;13.32;;;13.90;99.90;;;;;;5025959;28;20495;-64
2021/06/10 02:38:14;;;;;;;18.50;14.65;;;13.90;99.90;;;;;;5028240;28;20046;-64
2021/06/10 02:40:46;;;;;;;19.00;17.20;;;13.90;99.90;;;;;;5028846;28;20049;-64
2021/06/10 02:43:13;;;;;;;22.23;19.48;;;13.90;99.90;;;;;;5025117;28;20026;-64
2021/06/10 02:45:42;;;;;;;22.05;19.95;;;13.90;99.90;;;;;;5029548;28;20044;-64
2021/06/10 02:48:09;;;;;;;18.88;16.95;;;13.90;99.90;;;;;;5027805;28;20508;-64
2021/06/10 02:50:38;;;;;;;22.38;20.15;;;13.90;99.90;;;;;;5026691;28;20602;-64
2021/06/10 02:53:05;;;;;;;20.38;18.23;;;13.80;99.90;;;;;;5028672;28;20113;-64
2021/06/10 02:55:32;;;;;;;16.80;15.20;;;13.80;99.90;;;;;;5028908;28;20045;-64
2021/06/10 02:57:59;;;;;;;13.38;12.18;;;13.80;99.90;;;;;;5029418;28;20041;-64
2021/06/10 03:00:31;;;;;;;16.75;14.38;;;13.80;99.90;;;;;;5027845;28;20033;-64
2021/06/10 03:02:59;;;;;;;13.50;9.98;;;13.70;99.90;;;;;;5025345;28;20037;-64
2021/06/10 03:05:26;;;;;;;9.10;7.85;;;13.70;99.90;;;;;;5024090;28;20033;-64
2021/06/10 03:07:53;;;;;;;10.70;9.80;;;13.70;99.90;;;;;;5024309;28;20046;-64
2021/06/10 03:10:26;;;;;;;12.95;11.88;;;13.60;99.90;;;;;;5024308;28;20472;-64
2021/06/10 03:12:54;;;;;;;17.17;15.43;;;13.60;99.90;;;;;;5022337;28;20038;-64
2021/06/10 03:15:20;;;;;;;19.85;16.67;;;13.60;99.90;;;;;;5023906;28;20634;-64
2021/06/10 03:17:47;;;;;;;13.45;12.13;;;13.60;99.90;;;;;;5025011;28;20033;-64
2021/06/10 03:20:14;;;;;;;17.75;16.00;;;13.50;99.90;;;;;;5022576;28;20041;-64
2021/06/10 03:22:40;;;;;;;18.77;16.88;;;13.50;99.90;;;;;;5025063;28;20059;-64
2021/06/10 03:25:08;;;;;;;18.67;16.92;;;13.50;99.90;;;;;;5023336;28;20025;-64
2021/06/10 03:27:35;;;;;;;20.13;18.08;;;13.50;99.90;;;;;;5023757;28;20052;-64
2021/06/10 03:30:02;;;;;;;16.25;14.75;;;13.50;99.90;;;;;;5022826;28;20051;-64
2021/06/10 03:32:28;;;;;;;18.88;17.02;;;13.50;99.90;;;;;;5022669;28;20057;-64
2021/06/10 03:34:56;;;;;;;19.35;17.50;;;13.50;99.90;;;;;;5023203;28;20123;-64
2021/06/10 03:37:23;;;;;;;21.73;19.52;;;13.40;99.90;;;;;;5024335;28;20041;-64
2021/06/10 03:39:51;;;;;;;21.63;18.38;;;13.40;99.90;;;;;;5023792;28;20400;-64
2021/06/10 03:42:18;;;;;;;17.65;15.90;;;13.40;99.90;;;;;;5023413;28;20045;-64
2021/06/10 03:44:45;;;;;;;24.48;20.52;;;13.40;99.90;;;;;;5021751;28;20037;-64
2021/06/10 03:47:13;;;;;;;14.90;13.60;;;13.40;99.90;;;;;;5023410;28;20052;-64
2021/06/10 03:49:40;;;;;;;9.15;8.35;;;13.40;99.90;;;;;;5023413;28;20443;-64
2021/06/10 03:52:06;;;;;;;9.07;8.27;;;13.40;99.90;;;;;;5020493;28;20052;-64
2021/06/10 03:54:32;;;;;;;11.43;10.32;;;13.40;99.90;;;;;;5024355;28;20581;-64
2021/06/10 03:56:58;;;;;;;9.40;8.43;;;13.50;99.90;;;;;;5022093;28;20049;-64
2021/06/10 03:59:24;;;;;;;16.92;14.70;;;13.50;99.90;;;;;;5023167;28;20048;-64
2021/06/10 04:01:50;;;;;;;11.63;10.63;;;13.50;99.90;;;;;;5023409;28;20038;-64
2021/06/10 04:04:17;;;;;;;19.73;17.52;;;13.60;99.90;;;;;;5021805;28;20160;-64
2021/06/10 04:06:47;;;;;;;21.20;19.10;;;13.60;99.90;;;;;;5020978;28;20041;-64
2021/06/10 04:09:17;;;;;;;26.10;23.33;;;13.80;99.90;;;;;;5019866;28;20124;-64
2021/06/10 04:11:43;;;;;;;24.88;22.40;;;13.90;99.90;;;;;;5020604;28;20518;-64
2021/06/10 04:14:08;;;;;;;29.25;26.02;;;13.90;99.90;;;;;;5023733;28;20041;-64
2021/06/10 04:16:35;;;;;;;26.60;23.98;;;14.00;99.90;;;;;;5023140;28;20034;-64
2021/06/10 04:19:01;;;;;;;27.63;24.73;;;14.10;99.90;;;;;;5020168;28;20050;-64
2021/06/10 04:21:47;;;;;;;27.20;24.58;;;14.10;99.90;;;;;;5019533;28;20128;-64
2021/06/10 04:24:14;;;;;;;27.10;24.35;;;14.10;99.90;;;;;;5023223;28;20803;-64
2021/06/10 04:26:40;;;;;;;28.30;24.75;;;14.10;99.90;;;;;;5020911;28;20037;-64
2021/06/10 04:29:06;;;;;;;28.50;25.70;;;14.20;99.90;;;;;;5020578;28;20045;-64
2021/06/10 04:31:33;;;;;;;25.42;22.83;;;14.30;99.90;;;;;;5021246;28;20124;-64
2021/06/10 04:33:58;;;;;;;26.13;23.17;;;14.40;99.90;;;;;;5025902;28;20056;-64
2021/06/10 04:36:25;;;;;;;27.13;24.38;;;14.40;99.90;;;;;;5024370;28;20041;-64
2021/06/10 04:38:51;;;;;;;24.90;22.50;;;14.50;99.90;;;;;;5027693;28;20520;-66
2021/06/10 04:41:18;;;;;;;28.08;24.10;;;14.70;99.90;;;;;;5022024;28;20069;-66
2021/06/10 04:44:03;;;;;;;;;;;14.80;99.90;;;;;;5049340;28;20509;-66
2021/06/10 04:46:32;;;;;;;28.17;23.42;;;15.30;99.90;;;;;;5024485;28;19921;-66
2021/06/10 04:48:59;;;;;;;24.63;22.17;;;15.20;99.90;;;;;;5024859;28;20041;-66
2021/06/10 04:51:26;;;;;;;23.65;21.30;;;15.70;99.90;;;;;;5027324;28;20060;-66
2021/06/10 04:53:53;;;;;;;21.02;18.98;;;16.50;99.90;;;;;;5025362;28;20041;-67
2021/06/10 04:56:24;;;;;;;22.23;18.58;;;17.70;99.90;;;;;;5025004;28;20033;-67
2021/06/10 04:58:51;;;;;;;21.58;19.20;;;19.20;98.50;;;;;;5026863;28;20041;-67
2021/06/10 05:01:17;;;;;;;21.63;19.58;;;20.40;96.40;;;;;;5026449;28;20065;-67
2021/06/10 05:03:43;;;;;;;22.25;19.77;;;21.10;93.10;;;;;;5026550;28;20504;-67
2021/06/10 05:06:09;;;;;;;19.95;17.95;;;21.30;91.70;;;;;;5024336;28;20602;-67
2021/06/10 05:08:35;;;;;;;24.95;18.95;;;21.20;92.40;;;;;;5027631;28;20088;-67
2021/06/10 05:11:08;;;;;;;20.40;18.25;;;21.20;92.80;;;;;;5027180;28;20038;-67
2021/06/10 05:13:35;;;;;;;22.35;18.98;;;21.10;93.30;;;;;;5026542;28;20167;-67
2021/06/10 05:16:01;;;;;;;21.20;18.75;;;21.00;93.70;;;;;;5022432;28;20056;-65
2021/06/10 05:18:27;;;;;;;22.20;19.02;;;21.00;94.30;;;;;;5022377;28;20041;-64
2021/06/10 05:21:06;;;;;;;21.83;19.50;;;21.00;94.60;;;;;;5019610;28;20053;-65
2021/06/10 05:23:32;;;;;;;21.77;19.50;;;21.10;94.30;;;;;;5021993;28;20033;-65
2021/06/10 05:26:03;;;;;;;24.08;19.55;;;21.30;93.60;;;;;;5019306;28;20041;-65
2021/06/10 05:28:34;;;;;;;22.48;20.27;;;21.50;93.10;;;;;;5020276;28;20048;-65
2021/06/10 05:31:01;;;;;;;24.48;20.65;;;21.60;92.10;;;;;;5021373;28;20041;-65
2021/06/10 05:33:31;;;;;;;20.45;18.48;;;21.70;92.10;;;;;;5022177;28;20052;-65
2021/06/10 05:35:57;;;;;;;20.52;18.52;;;21.90;91.70;;;;;;5019194;28;20037;-65
2021/06/10 05:38:23;;;;;;;19.67;17.75;;;21.90;91.30;;;;;;5020643;28;20053;-65
2021/06/10 05:40:49;;;;;;;20.52;18.65;;;22.00;91.50;;;;;;5025161;28;20033;-65
2021/06/10 05:43:15;;;;;;;20.42;18.10;;;22.30;90.70;;;;;;5016392;28;20880;-64
2021/06/10 05:45:44;;;;;;;18.95;16.55;;;22.40;90.50;;;;;;5021919;28;20989;-65
2021/06/10 05:48:12;;;;;;;18.55;16.80;;;22.50;89.50;;;;;;5020842;28;20045;-65
2021/06/10 05:50:38;;;;;;;18.45;16.48;;;22.60;88.90;;;;;;5050519;28;20053;-65
2021/06/10 05:53:04;;;;;;;18.95;17.30;;;22.80;87.90;;;;;;5022349;28;20037;-65
2021/06/10 05:55:31;;;;;;;19.50;17.60;;;22.90;87.20;;;;;;5022938;28;20504;-65
2021/06/10 05:57:57;;;;;;;22.17;16.33;;;22.90;86.60;;;;;;5022960;28;20132;-65
2021/06/10 06:00:24;;;;;;;18.13;15.98;;;23.00;87.00;;;;;;5025057;28;20038;-65
2021/06/10 06:02:50;;;;;;;17.05;15.25;;;23.10;86.70;;;;;;5027093;28;20033;-65
2021/06/10 06:05:17;;;;;;;15.65;14.13;;;23.30;86.30;;;;;;5025206;28;20099;-65
2021/06/10 06:07:43;;;;;;;16.02;14.63;;;23.40;85.70;;;;;;5024042;28;20038;-65
2021/06/10 06:10:11;;;;;;;16.67;15.07;;;23.60;83.80;;;;;;5023580;28;20050;-65
2021/06/10 06:12:52;;;;;;;17.45;15.27;;;23.70;83.20;;;;;;5026478;28;20150;-65
2021/06/10 06:15:19;;;;;;;18.08;14.85;;;23.80;81.90;;;;;;5024869;28;20095;-65
2021/06/10 06:17:46;;;;;;;17.80;13.80;;;23.80;82.00;;;;;;5026382;28;20128;-65
2021/06/10 06:20:13;;;;;;;15.65;14.05;;;23.70;81.40;;;;;;5026663;28;20107;-65
2021/06/10 06:22:41;;;;;;;15.57;14.05;;;23.80;81.00;;;;;;5025279;28;20048;-65
2021/06/10 06:25:13;;;;;;;18.70;13.82;;;23.90;82.10;;;;;;5023869;28;20041;-65
2021/06/10 06:27:39;;;;;;;16.13;14.45;;;24.20;81.40;;;;;;5025057;28;20052;-65
2021/06/10 06:30:07;;;;;;;14.93;13.60;;;24.20;80.90;;;;;;5024398;28;20033;-65
2021/06/10 06:32:34;;;;;;;14.85;13.45;;;24.40;81.40;;;;;;5024640;28;20038;-65
2021/06/10 06:35:08;;;;;;;15.23;13.48;;;24.60;81.00;;;;;;5026260;28;20060;-65
2021/06/10 06:37:45;;;;;;;14.75;13.07;;;24.80;79.00;;;;;;5028400;28;20156;-65
2021/06/10 06:40:11;;;;;;;14.38;13.00;;;24.80;75.80;;;;;;5024035;28;20183;-65
2021/06/10 06:42:37;;;;;;;14.35;12.57;;;24.60;76.80;;;;;;5022481;28;20048;-65
2021/06/10 06:45:05;;;;;;;15.05;13.45;;;24.60;75.80;;;;;;5024586;28;20061;-65
2021/06/10 06:47:34;;;;;;;13.57;12.27;;;24.60;75.60;;;;;;5024691;28;20132;-65
2021/06/10 06:50:04;;;;;;;19.30;11.43;;;24.80;76.60;;;;;;5024517;28;20042;-65
2021/06/10 06:52:30;;;;;;;12.98;11.68;;;24.90;74.80;;;;;;5023275;28;20042;-65
2021/06/10 06:54:56;;;;;;;13.43;11.32;;;24.90;74.10;;;;;;5023087;28;20107;-65
2021/06/10 06:57:22;;;;;;;13.63;12.02;;;25.10;76.80;;;;;;5021597;28;20041;-65
2021/06/10 06:59:48;;;;;;;14.57;13.10;;;25.40;74.90;;;;;;5022820;28;20404;-65
2021/06/10 07:02:14;;;;;;;14.63;13.18;;;25.40;72.80;;;;;;5023324;28;20042;-65
2021/06/10 07:04:40;;;;;;;14.60;13.05;;;25.40;72.30;;;;;;5023505;28;20353;-65
2021/06/10 07:07:06;;;;;;;13.13;11.90;;;25.40;71.00;;;;;;5023367;28;20049;-65
2021/06/10 07:09:37;;;;;;;13.05;11.85;;;25.20;71.70;;;;;;5023136;28;20045;-66
2021/06/10 07:12:06;;;;;;;16.70;12.40;;;25.10;72.30;;;;;;5018832;28;20046;-65
2021/06/10 07:14:32;;;;;;;12.63;11.55;;;25.00;72.00;;;;;;5021983;28;20064;-65
2021/06/10 07:17:01;;;;;;;14.38;11.85;;;24.80;72.70;;;;;;5024176;28;20050;-65
2021/06/10 07:19:31;;;;;;;13.35;12.13;;;24.80;72.70;;;;;;5022035;28;20570;-65
2021/06/10 07:21:56;;;;;;;13.15;11.95;;;24.90;74.40;;;;;;5023972;28;20041;-65
2021/06/10 07:24:37;;;;;;;11.57;10.43;;;25.20;75.70;;;;;;5024174;28;20034;-65
2021/06/10 07:27:05;;;;;;;12.82;11.60;;;25.50;75.30;;;;;;5022270;28;20041;-65
2021/06/10 07:29:33;;;;;;;13.15;10.85;;;25.70;72.10;;;;;;5024835;28;20042;-65
2021/06/10 07:32:00;;;;;;;13.32;11.93;;;25.60;72.80;;;;;;5023206;28;20041;-66
2021/06/10 07:34:29;;;;;;;11.50;10.50;;;25.80;73.30;;;;;;5020241;28;20156;-65
2021/06/10 07:36:54;;;;;;;12.65;10.57;;;25.90;73.20;;;;;;5022966;28;20077;-65
2021/06/10 07:39:20;;;;;;;10.65;9.63;;;25.80;72.10;;;;;;5023747;28;20042;-65
2021/06/10 07:41:46;;;;;;;11.00;9.77;;;25.80;72.90;;;;;;5023200;28;20381;-65
2021/06/10 07:44:16;;;;;;;11.20;10.10;;;26.00;72.70;;;;;;5021980;28;20042;-65
2021/06/10 07:46:42;;;;;;;9.63;8.52;;;26.30;73.30;;;;;;5021056;28;20050;-65
2021/06/10 07:49:08;;;;;;;10.48;9.50;;;26.50;72.70;;;;;;5022021;28;20112;-66
2021/06/10 07:51:34;;;;;;;10.23;9.23;;;26.50;69.50;;;;;;5022147;28;20048;-66
2021/06/10 07:54:00;;;;;;;10.60;9.60;;;26.50;69.20;;;;;;5022719;28;20160;-66
2021/06/10 07:56:26;;;;;;;8.70;7.88;;;26.40;69.30;;;;;;5021493;28;20392;-66
2021/06/10 07:58:52;;;;;;;16.13;9.60;;;26.20;69.60;;;;;;5021876;28;20052;-65
2021/06/10 08:01:18;;;;;;;9.13;8.25;;;26.00;69.50;;;;;;5022409;28;20507;-65
2021/06/10 08:03:46;;;;;;;8.57;7.88;;;26.00;72.60;;;;;;5022318;28;20041;-65
2021/06/10 08:06:11;;;;;;;9.30;8.38;;;26.30;73.20;;;;;;5021920;28;20045;-65
2021/06/10 08:08:38;;;;;;;10.27;7.60;;;26.40;67.60;;;;;;5023572;28;20056;-65
2021/06/10 08:11:06;;;;;;;8.73;7.88;;;26.40;67.50;;;;;;5017428;28;20044;-65
2021/06/10 08:13:34;;;;;;;15.50;6.75;;;26.40;69.40;;;;;;5023401;28;20034;-66
2021/06/10 08:16:00;;;;;;;8.80;8.10;;;26.50;69.50;;;;;;5020767;28;20466;-66
2021/06/10 08:18:28;;;;;;;9.15;7.38;;;26.70;68.40;;;;;;5020338;28;20129;-66
2021/06/10 08:21:00;;;;;;;8.95;6.68;;;26.70;65.60;;;;;;5022027;28;20038;-66
2021/06/10 08:23:27;;;;;;;9.23;6.70;;;26.70;67.00;;;;;;5021938;28;20103;-66
2021/06/10 08:26:00;;;;;;;9.35;6.55;;;26.70;64.70;;;;;;5021593;28;20064;-66
2021/06/10 08:28:29;;;;;;;7.18;6.47;;;26.70;66.10;;;;;;5022094;28;20026;-66
2021/06/10 08:30:56;;;;;;;6.30;5.70;;;26.80;64.70;;;;;;5021791;28;20049;-66
2021/06/10 08:33:23;;;;;;;5.50;5.00;;;26.70;64.40;;;;;;5021776;28;20041;-66
2021/06/10 08:35:50;;;;;;;6.22;5.00;;;26.60;66.10;;;;;;5020407;28;20035;-66
2021/06/10 08:38:16;;;;;;;6.40;5.55;;;26.70;67.10;;;;;;5020269;28;20095;-66
2021/06/10 08:40:42;;;;;;;8.20;6.20;;;26.70;65.40;;;;;;5021953;28;20057;-66
2021/06/10 08:43:08;;;;;;;7.35;6.65;;;26.70;62.90;;;;;;5021283;28;20111;-66
2021/06/10 08:45:37;;;;;;;9.77;5.55;;;26.60;62.10;;;;;;5021408;28;20038;-66
2021/06/10 08:48:04;;;;;;;6.85;5.68;;;26.60;64.20;;;;;;5021081;28;20044;-66
2021/06/10 08:50:32;;;;;;;9.95;5.47;;;26.80;66.50;;;;;;5020624;28;20379;-70
2021/06/10 08:53:00;;;;;;;9.75;5.57;;;27.00;68.60;;;;;;5020068;28;20037;-66
2021/06/10 08:55:27;;;;;;;7.90;6.95;;;27.10;62.40;;;;;;5022068;28;20150;-66
2021/06/10 08:57:53;;;;;;;6.22;5.57;;;27.00;60.30;;;;;;5021905;28;20120;-66
2021/06/10 09:00:25;;;;;;;5.45;4.38;;;26.90;63.20;;;;;;5020620;28;20040;-66
2021/06/10 09:02:56;;;;;;;5.13;4.65;;;26.70;64.30;;;;;;5022228;28;20053;-66
2021/06/10 09:05:23;;;;;;;7.53;5.20;;;26.80;65.90;;;;;;5024722;28;20404;-66
2021/06/10 09:07:55;;;;;;;8.27;5.20;;;26.70;62.50;;;;;;5024503;28;20045;-66
2021/06/10 09:10:26;;;;;;;5.80;4.13;;;26.70;62.70;;;;;;5021941;28;20088;-66
2021/06/10 09:12:57;;;;;;;4.47;3.85;;;26.80;64.20;;;;;;5023190;28;20476;-66
2021/06/10 09:15:26;;;;;;;8.10;5.53;;;27.00;59.90;;;;;;5023249;28;20064;-66
2021/06/10 09:17:59;;;;;;;5.03;4.35;;;27.10;57.10;;;;;;5022855;28;20048;-66
2021/06/10 09:20:29;;;;;;;4.68;4.28;;;27.20;59.40;;;;;;5021052;28;20041;-66
2021/06/10 09:23:15;;;;;;;7.55;5.38;;;27.40;60.40;;;;;;5021047;28;20040;-66
2021/06/10 09:25:43;;;;;;;9.18;6.03;;;27.50;62.20;;;;;;5020869;28;20690;-66
2021/06/10 09:28:10;;;;;;;7.85;5.82;;;27.70;62.40;;;;;;5020689;28;20037;-66
2021/06/10 09:30:48;;;;;;;6.50;4.82;;;27.90;62.40;;;;;;5021033;28;20045;-66
2021/06/10 09:33:19;;;;;;;4.55;3.83;;;28.20;62.00;;;;;;5020576;28;20041;-66
2021/06/10 09:35:46;;;;;;;4.50;3.60;;;28.30;59.70;;;;;;5021253;28;20041;-66
2021/06/10 09:38:26;;;;;;;7.20;4.97;;;28.40;59.40;;;;;;5019297;28;20124;-66
2021/06/10 09:41:06;;;;;;;5.93;5.43;;;28.40;58.40;;;;;;5019702;28;20075;-66
2021/06/10 09:43:43;;;;;;;11.73;4.00;;;28.40;58.30;;;;;;5020295;28;20037;-66
2021/06/10 09:46:13;;;;;;;4.85;3.45;;;28.50;59.60;;;;;;5020689;28;20561;-66
2021/06/10 09:49:07;;;;;;;3.65;3.20;;;28.50;58.30;;;;;;5018040;28;20081;-66
2021/06/10 09:51:39;;;;;;;3.47;3.17;;;28.70;58.30;;;;;;5020448;28;20147;-66
2021/06/10 09:54:05;;;;;;;3.28;2.72;;;28.80;58.20;;;;;;5021184;28;20116;-66
2021/06/10 09:56:31;;;;;;;4.65;3.05;;;28.80;57.80;;;;;;5018694;28;20048;-66
2021/06/10 09:59:04;;;;;;;3.85;3.20;;;29.00;56.90;;;;;;5018685;28;20029;-66
2021/06/10 10:01:30;;;;;;;6.07;3.40;;;28.90;57.40;;;;;;5020886;28;21046;-66
2021/06/10 10:03:59;;;;;;;5.50;4.75;;;28.90;59.40;;;;;;5018405;28;20061;-66
2021/06/10 10:06:30;;;;;;;6.97;3.55;;;29.00;57.10;;;;;;5019644;28;20121;-66
2021/06/10 10:09:01;;;;;;;6.78;3.20;;;28.90;57.20;;;;;;5019296;28;20053;-66
2021/06/10 10:11:29;;;;;;;4.68;2.85;;;29.00;56.20;;;;;;5019180;28;20045;-66
2021/06/10 10:13:58;;;;;;;13.65;3.97;;;29.00;53.40;;;;;;5017648;28;20447;-66
2021/06/10 10:16:33;;;;;;;5.65;3.30;;;28.80;54.20;;;;;;5017158;28;20549;-66
2021/06/10 10:19:03;;;;;;;5.07;2.83;;;28.60;55.40;;;;;;5018651;28;20046;-66
2021/06/10 10:21:31;;;;;;;4.03;2.50;;;28.60;57.50;;;;;;5018195;28;20033;-66
2021/06/10 10:24:03;;;;;;;4.78;3.70;;;28.60;57.30;;;;;;5015908;28;20129;-66
2021/06/10 10:26:30;;;;;;;3.08;2.58;;;28.50;55.50;;;;;;5021228;28;20034;-66
2021/06/10 10:28:59;;;;;;;6.90;2.08;;;28.40;55.30;;;;;;5018078;28;20060;-66
2021/06/10 10:31:26;;;;;;;5.35;3.00;;;28.40;53.20;;;;;;5021551;28;20483;-66
2021/06/10 10:33:53;;;;;;;4.07;2.60;;;28.50;55.20;;;;;;5018495;28;20041;-66
2021/06/10 10:36:28;;;;;;;4.30;2.58;;;28.50;56.00;;;;;;5019300;28;20057;-66
2021/06/10 10:39:10;;;;;;;7.00;3.55;;;28.60;58.30;;;;;;5019101;28;20038;-66
2021/06/10 10:41:51;;;;;;;4.05;2.35;;;28.60;55.10;;;;;;5023431;28;20038;-66
2021/06/10 10:44:22;;;;;;;4.63;3.13;;;28.60;54.50;;;;;;5021584;28;20045;-66
2021/06/10 10:47:00;;;;;;;5.78;2.90;;;28.50;54.50;;;;;;5024488;28;20037;-66
2021/06/10 10:49:31;;;;;;;3.30;2.92;;;28.50;56.00;;;;;;5039347;28;20053;-66
2021/06/10 10:52:16;;;;;;;7.82;3.63;;;28.40;56.90;;;;;;5022460;28;20116;-66
2021/06/10 10:54:43;;;;;;;3.33;3.03;;;28.50;56.50;;;;;;5023538;28;20050;-66
2021/06/10 10:57:31;;;;;;;4.75;2.78;;;28.50;56.60;;;;;;5023005;28;20044;-66
2021/06/10 10:59:58;;;;;;;6.07;2.80;;;28.50;52.50;;;;;;5024035;28;20053;-66
2021/06/10 11:02:26;;;;;;;3.22;2.58;;;28.40;54.40;;;;;;5022816;28;20488;-66
2021/06/10 11:05:00;;;;;;;6.45;2.80;;;28.50;56.60;;;;;;5022033;28;20037;-66
2021/06/10 11:07:36;;;;;;;5.13;2.93;;;28.60;55.40;;;;;;5023643;28;20113;-66
2021/06/10 11:10:09;;;;;;;7.45;3.33;;;28.60;53.10;;;;;;5023806;28;20307;-66
2021/06/10 11:12:41;;;;;;;4.93;2.72;;;28.50;54.50;;;;;;5023050;28;20034;-66
2021/06/10 11:15:23;;;;;;;5.55;3.03;;;28.50;56.40;;;;;;5021942;28;20033;-66
2021/06/10 11:17:50;;;;;;;5.88;3.03;;;28.60;54.30;;;;;;5023994;28;20045;-66
2021/06/10 11:20:18;;;;;;;3.70;2.25;;;28.70;54.60;;;;;;5023848;28;20086;-66
2021/06/10 11:22:51;;;;;;;58.08;6.55;;;28.80;54.00;;;;;;5023016;28;20168;-66
2021/06/10 11:25:26;;;;;;;4.28;2.80;;;28.90;52.90;;;;;;5020731;28;20037;-66
2021/06/10 11:27:54;;;;;;;4.00;3.38;;;29.00;53.80;;;;;;5021703;28;20504;-66
2021/06/10 11:30:26;;;;;;;4.95;3.05;;;28.90;53.10;;;;;;5022137;28;20125;-66
2021/06/10 11:33:02;;;;;;;3.30;2.85;;;28.80;52.40;;;;;;5024100;28;20037;-66
2021/06/10 11:35:37;;;;;;;2.60;2.35;;;28.90;53.00;;;;;;5022063;28;20150;-66
2021/06/10 11:38:18;;;;;;;5.70;2.40;;;29.10;55.50;;;;;;5023637;28;21501;-66
2021/06/10 11:40:55;;;;;;;4.90;3.03;;;29.00;50.90;;;;;;5022870;28;20091;-66
2021/06/10 11:43:23;;;;;;;2.35;1.67;;;29.00;51.80;;;;;;5021400;28;20357;-66
2021/06/10 11:46:05;;;;;;;8.77;2.67;;;28.90;53.50;;;;;;5021843;28;20168;-66
2021/06/10 11:48:53;;;;;;;2.50;2.10;;;29.00;52.70;;;;;;5022394;28;20706;-66
2021/06/10 11:51:28;;;;;;;8.00;3.10;;;29.10;51.80;;;;;;5022806;28;20037;-66
2021/06/10 11:54:06;;;;;;;3.83;2.00;;;29.10;52.20;;;;;;5023219;28;20103;-66
2021/06/10 11:56:42;;;;;;;4.85;2.08;;;29.20;52.70;;;;;;5022619;28;20805;-66
2021/06/10 11:59:23;;;;;;;5.45;2.33;;;29.20;51.60;;;;;;5020783;28;20540;-66
2021/06/10 12:02:24;;;;;;;5.25;1.98;;;29.20;50.40;;;;;;5022636;28;20041;-66
2021/06/10 12:05:11;;;;;;;5.32;2.38;;;29.10;52.60;;;;;;4988723;28;20058;-66
2021/06/10 12:07:37;;;;;;;2.70;1.95;;;29.20;51.10;;;;;;5023016;28;20077;-66
2021/06/10 12:10:09;;;;;;;2.42;1.38;;;29.30;51.90;;;;;;5022458;28;20079;-66
2021/06/10 12:12:44;;;;;;;2.28;1.38;;;29.40;51.50;;;;;;5022855;28;20051;-66
2021/06/10 12:15:27;;;;;;;;;;;29.50;51.90;;;;;;5020633;28;20061;-67
2021/06/10 12:18:05;;;;;;;4.55;2.30;;;29.40;52.10;;;;;;5023243;28;19917;-66
2021/06/10 12:20:34;;;;;;;3.92;1.50;;;29.40;50.60;;;;;;5018863;28;20163;-66
2021/06/10 12:23:02;;;;;;;1.67;1.35;;;29.50;51.20;;;;;;5021523;28;20044;-66
2021/06/10 12:25:31;;;;;;;2.95;2.40;;;29.40;51.20;;;;;;5022168;28;20033;-66
2021/06/10 12:27:59;;;;;;;5.13;1.90;;;29.10;49.30;;;;;;5021655;28;20076;-66
2021/06/10 12:30:36;;;;;;;2.10;1.50;;;29.10;46.80;;;;;;5021533;28;20528;-66
2021/06/10 12:33:20;;;;;;;6.47;1.45;;;29.00;50.20;;;;;;5019481;28;20049;-66
2021/06/10 12:35:48;;;;;;;2.42;2.00;;;29.00;52.60;;;;;;5023395;28;20534;-66
2021/06/10 12:38:25;;;;;;;3.00;1.02;;;29.00;48.70;;;;;;5022847;28;20049;-66
2021/06/10 12:40:51;;;;;;;10.38;2.55;;;29.10;49.60;;;;;;5021929;28;20500;-66
2021/06/10 12:43:24;;;;;;;2.33;1.00;;;29.20;48.70;;;;;;5021139;28;20400;-66
2021/06/10 12:46:11;;;;;;;3.80;1.10;;;29.30;49.10;;;;;;5021355;28;20049;-66
2021/06/10 12:48:39;;;;;;;2.17;1.30;;;29.30;51.70;;;;;;5020845;28;20044;-66